createdAt,value
2017-02-17T00:00:43.961Z,0
2017-02-17T00:01:55.390Z,0
2017-02-17T00:03:06.841Z,0
2017-02-17T00:04:18.266Z,0
2017-02-17T00:05:29.910Z,0
2017-02-17T00:06:41.409Z,0
2017-02-17T00:07:53.250Z,0
2017-02-17T00:09:04.700Z,0
2017-02-17T00:10:16.137Z,0
2017-02-17T00:11:27.585Z,0
2017-02-17T00:12:39.035Z,0
2017-02-17T00:13:50.484Z,0
2017-02-17T00:15:01.927Z,0
2017-02-17T00:16:13.380Z,0
2017-02-17T00:17:24.855Z,0
2017-02-17T00:18:36.297Z,0
2017-02-17T00:19:47.738Z,0
2017-02-17T00:20:59.174Z,0
2017-02-17T00:22:10.608Z,0
2017-02-17T00:23:22.438Z,0
2017-02-17T00:24:33.865Z,0
2017-02-17T00:25:45.295Z,0
2017-02-17T00:26:56.759Z,0
2017-02-17T00:28:08.225Z,0
2017-02-17T00:29:19.669Z,0
2017-02-17T00:30:31.108Z,0
2017-02-17T00:31:42.571Z,0
2017-02-17T00:32:54.215Z,0
2017-02-17T00:34:05.667Z,0
2017-02-17T00:35:17.085Z,0
2017-02-17T00:36:28.539Z,0
2017-02-17T00:37:39.976Z,0
2017-02-17T00:38:51.496Z,0
2017-02-17T00:40:02.946Z,0
2017-02-17T00:41:14.389Z,0
2017-02-17T00:42:25.837Z,0
2017-02-17T00:43:37.262Z,0
2017-02-17T00:44:48.705Z,0
2017-02-17T00:46:00.131Z,0
2017-02-17T00:47:11.588Z,0
2017-02-17T00:48:23.009Z,0
2017-02-17T00:49:34.491Z,0
2017-02-17T00:50:45.949Z,0
2017-02-17T00:51:57.393Z,0
2017-02-17T00:53:08.843Z,0
2017-02-17T00:54:20.261Z,0
2017-02-17T00:55:32.117Z,0
2017-02-17T00:56:43.552Z,0
2017-02-17T00:57:55.033Z,0
2017-02-17T00:59:06.466Z,0
2017-02-17T01:00:17.963Z,0
2017-02-17T01:01:29.397Z,0
2017-02-17T01:02:40.851Z,0
2017-02-17T01:03:52.506Z,0
2017-02-17T01:05:03.940Z,0
2017-02-17T01:06:15.379Z,0
2017-02-17T01:07:27.024Z,0
2017-02-17T01:08:38.468Z,0
2017-02-17T01:09:49.961Z,0
2017-02-17T01:11:01.445Z,0
2017-02-17T01:12:12.870Z,0
2017-02-17T01:13:24.333Z,0
2017-02-17T01:14:35.968Z,0
2017-02-17T01:15:47.410Z,0
2017-02-17T01:16:58.916Z,0
2017-02-17T01:18:10.355Z,0
2017-02-17T01:19:21.803Z,0
2017-02-17T01:20:33.250Z,0
2017-02-17T01:21:45.095Z,0
2017-02-17T01:22:56.540Z,0
2017-02-17T01:24:08.381Z,0
2017-02-17T01:25:19.815Z,0
2017-02-17T01:26:31.260Z,0
2017-02-17T01:27:42.739Z,0
2017-02-17T01:28:54.171Z,0
2017-02-17T01:30:05.592Z,0
2017-02-17T01:31:17.048Z,0
2017-02-17T01:32:28.510Z,0
2017-02-17T01:33:39.950Z,0
2017-02-17T01:34:51.379Z,0
2017-02-17T01:36:03.026Z,0
2017-02-17T01:37:14.465Z,0
2017-02-17T01:38:25.968Z,0
2017-02-17T01:39:37.454Z,0
2017-02-17T01:40:48.899Z,0
2017-02-17T01:42:00.339Z,0
2017-02-17T01:43:11.771Z,0
2017-02-17T01:44:23.403Z,0
2017-02-17T01:45:34.870Z,0
2017-02-17T01:46:46.315Z,0
2017-02-17T01:47:58.148Z,0
2017-02-17T01:49:09.633Z,0
2017-02-17T01:50:21.089Z,0
2017-02-17T01:51:32.530Z,0
2017-02-17T01:52:43.969Z,0
2017-02-17T01:53:55.639Z,0
2017-02-17T01:55:07.095Z,0
2017-02-17T01:56:18.536Z,0
2017-02-17T01:57:29.987Z,0
2017-02-17T01:58:41.428Z,0
2017-02-17T01:59:52.915Z,0
2017-02-17T02:01:04.363Z,0
2017-02-17T02:02:15.819Z,0
2017-02-17T02:03:27.259Z,0
2017-02-17T02:04:38.719Z,0
2017-02-17T02:05:50.202Z,0
2017-02-17T02:07:01.649Z,0
2017-02-17T02:08:13.316Z,0
2017-02-17T02:09:24.743Z,0
2017-02-17T02:10:36.218Z,0
2017-02-17T02:11:47.654Z,0
2017-02-17T02:12:59.103Z,0
2017-02-17T02:14:10.543Z,0
2017-02-17T02:15:21.982Z,0
2017-02-17T02:16:33.435Z,0
2017-02-17T02:17:45.071Z,0
2017-02-17T02:18:56.523Z,0
2017-02-17T02:20:07.958Z,0
2017-02-17T02:21:19.451Z,0
2017-02-17T02:22:30.885Z,0
2017-02-17T02:23:42.509Z,0
2017-02-17T02:24:53.945Z,0
2017-02-17T02:26:05.373Z,0
2017-02-17T02:27:16.819Z,0
2017-02-17T02:28:28.457Z,0
2017-02-17T02:29:40.091Z,0
2017-02-17T02:30:51.747Z,0
2017-02-17T02:32:03.448Z,0
2017-02-17T02:33:14.889Z,0
2017-02-17T02:34:26.334Z,0
2017-02-17T02:35:37.790Z,0
2017-02-17T02:36:49.242Z,0
2017-02-17T02:38:00.672Z,0
2017-02-17T02:39:12.116Z,0
2017-02-17T02:40:23.555Z,0
2017-02-17T02:41:34.983Z,0
2017-02-17T02:42:46.483Z,0
2017-02-17T02:43:57.912Z,0
2017-02-17T02:45:09.352Z,0
2017-02-17T02:46:20.789Z,0
2017-02-17T02:47:32.215Z,0
2017-02-17T02:48:43.649Z,0
2017-02-17T02:49:55.094Z,0
2017-02-17T02:51:06.541Z,0
2017-02-17T02:52:17.966Z,0
2017-02-17T02:53:29.454Z,0
2017-02-17T02:54:40.887Z,0
2017-02-17T02:55:52.343Z,0
2017-02-17T02:57:03.776Z,0
2017-02-17T02:58:15.234Z,0
2017-02-17T02:59:26.670Z,0
2017-02-17T03:00:38.101Z,0
2017-02-17T03:01:49.548Z,0
2017-02-17T03:03:01.000Z,0
2017-02-17T03:04:12.504Z,0
2017-02-17T03:05:24.154Z,0
2017-02-17T03:06:35.610Z,0
2017-02-17T03:07:47.452Z,0
2017-02-17T03:08:59.125Z,0
2017-02-17T03:10:10.830Z,0
2017-02-17T03:11:22.676Z,0
2017-02-17T03:12:34.308Z,0
2017-02-17T03:13:45.941Z,0
2017-02-17T03:14:57.652Z,0
2017-02-17T03:16:09.093Z,0
2017-02-17T03:17:20.751Z,0
2017-02-17T03:18:32.176Z,0
2017-02-17T03:19:43.625Z,0
2017-02-17T03:20:55.074Z,0
2017-02-17T03:22:06.554Z,0
2017-02-17T03:23:18.195Z,0
2017-02-17T03:24:29.645Z,0
2017-02-17T03:25:41.133Z,0
2017-02-17T03:26:52.587Z,0
2017-02-17T03:28:04.035Z,0
2017-02-17T03:29:15.476Z,0
2017-02-17T03:30:26.947Z,0
2017-02-17T03:31:38.383Z,0
2017-02-17T03:32:49.809Z,0
2017-02-17T03:34:01.256Z,0
2017-02-17T03:35:12.694Z,0
2017-02-17T03:36:24.170Z,0
2017-02-17T03:37:35.795Z,0
2017-02-17T03:38:47.434Z,0
2017-02-17T03:39:58.873Z,0
2017-02-17T03:41:10.301Z,0
2017-02-17T03:42:21.732Z,0
2017-02-17T03:43:33.173Z,0
2017-02-17T03:44:44.613Z,0
2017-02-17T03:45:56.044Z,0
2017-02-17T03:47:07.529Z,0
2017-02-17T03:48:18.964Z,0
2017-02-17T03:49:30.414Z,0
2017-02-17T03:50:41.861Z,0
2017-02-17T03:51:53.299Z,0
2017-02-17T03:53:04.725Z,0
2017-02-17T03:54:16.166Z,0
2017-02-17T03:55:27.607Z,0
2017-02-17T03:56:39.054Z,0
2017-02-17T03:57:50.742Z,0
2017-02-17T03:59:02.174Z,0
2017-02-17T04:00:13.592Z,0
2017-02-17T04:01:25.031Z,0
2017-02-17T04:02:36.697Z,0
2017-02-17T04:03:48.142Z,0
2017-02-17T04:04:59.576Z,0
2017-02-17T04:06:11.027Z,0
2017-02-17T04:07:22.461Z,0
2017-02-17T04:08:33.965Z,0
2017-02-17T04:09:45.655Z,0
2017-02-17T04:10:57.094Z,0
2017-02-17T04:12:08.540Z,0
2017-02-17T04:13:19.995Z,0
2017-02-17T04:14:31.433Z,0
2017-02-17T04:15:42.860Z,0
2017-02-17T04:16:54.288Z,0
2017-02-17T04:18:05.705Z,0
2017-02-17T04:19:17.134Z,0
2017-02-17T04:20:28.780Z,0
2017-02-17T04:21:40.226Z,0
2017-02-17T04:22:51.662Z,0
2017-02-17T04:24:03.122Z,0
2017-02-17T04:25:14.551Z,0
2017-02-17T04:26:25.994Z,0
2017-02-17T04:27:37.435Z,0
2017-02-17T04:28:48.878Z,0
2017-02-17T04:30:00.367Z,0
2017-02-17T04:31:12.014Z,0
2017-02-17T04:32:23.460Z,0
2017-02-17T04:33:34.897Z,0
2017-02-17T04:34:46.347Z,0
2017-02-17T04:35:57.788Z,0
2017-02-17T04:37:09.435Z,0
2017-02-17T04:38:20.896Z,0
2017-02-17T04:39:32.354Z,0
2017-02-17T04:40:43.870Z,0
2017-02-17T04:41:55.304Z,0
2017-02-17T04:43:06.730Z,0
2017-02-17T04:44:18.364Z,0
2017-02-17T04:45:29.997Z,0
2017-02-17T04:46:41.441Z,0
2017-02-17T04:47:52.875Z,0
2017-02-17T04:49:04.335Z,0
2017-02-17T04:50:15.783Z,0
2017-02-17T04:51:27.455Z,0
2017-02-17T04:52:38.904Z,0
2017-02-17T04:53:50.366Z,0
2017-02-17T04:55:01.789Z,0
2017-02-17T04:56:13.225Z,0
2017-02-17T04:57:24.701Z,0
2017-02-17T04:58:36.350Z,0
2017-02-17T04:59:47.977Z,0
2017-02-17T05:00:59.408Z,0
2017-02-17T05:02:10.895Z,0
2017-02-17T05:03:22.734Z,0
2017-02-17T05:04:34.156Z,0
2017-02-17T05:05:45.584Z,0
2017-02-17T05:06:57.222Z,0
2017-02-17T05:08:08.703Z,0
2017-02-17T05:09:20.144Z,0
2017-02-17T05:10:31.788Z,0
2017-02-17T05:11:43.232Z,0
2017-02-17T05:12:54.728Z,0
2017-02-17T05:14:06.170Z,0
2017-02-17T05:15:17.593Z,0
2017-02-17T05:16:29.064Z,0
2017-02-17T05:17:40.492Z,0
2017-02-17T05:18:51.930Z,0
2017-02-17T05:20:03.581Z,0
2017-02-17T05:21:15.033Z,0
2017-02-17T05:22:26.685Z,0
2017-02-17T05:23:38.168Z,0
2017-02-17T05:24:49.814Z,0
2017-02-17T05:26:01.237Z,0
2017-02-17T05:27:12.687Z,0
2017-02-17T05:28:24.121Z,0
2017-02-17T05:29:35.556Z,0
2017-02-17T05:30:46.996Z,0
2017-02-17T05:31:58.429Z,0
2017-02-17T05:33:09.901Z,0
2017-02-17T05:34:21.585Z,0
2017-02-17T05:35:33.017Z,0
2017-02-17T05:36:44.461Z,0
2017-02-17T05:37:55.893Z,0
2017-02-17T05:39:07.341Z,0
2017-02-17T05:40:18.983Z,0
2017-02-17T05:41:30.411Z,0
2017-02-17T05:42:41.858Z,0
2017-02-17T05:43:53.316Z,0
2017-02-17T05:45:04.803Z,0
2017-02-17T05:46:16.261Z,0
2017-02-17T05:47:27.710Z,0
2017-02-17T05:48:39.338Z,0
2017-02-17T05:49:50.759Z,0
2017-02-17T05:51:02.177Z,0
2017-02-17T05:52:13.598Z,0
2017-02-17T05:53:25.041Z,0
2017-02-17T05:54:36.698Z,0
2017-02-17T05:55:48.125Z,0
2017-02-17T05:56:59.780Z,0
2017-02-17T05:58:11.222Z,0
2017-02-17T05:59:22.683Z,0
2017-02-17T06:00:34.123Z,0
2017-02-17T06:01:45.610Z,0
2017-02-17T06:02:57.267Z,0
2017-02-17T06:04:08.711Z,0
2017-02-17T06:05:20.148Z,0
2017-02-17T06:06:31.582Z,0
2017-02-17T06:07:43.024Z,0
2017-02-17T06:08:54.451Z,0
2017-02-17T06:10:06.091Z,0
2017-02-17T06:11:17.544Z,0
2017-02-17T06:12:29.024Z,0
2017-02-17T06:13:40.449Z,0
2017-02-17T06:14:51.897Z,0
2017-02-17T06:16:03.331Z,0
2017-02-17T06:17:14.761Z,0
2017-02-17T06:18:26.205Z,0
2017-02-17T06:19:37.669Z,0
2017-02-17T06:20:49.114Z,0
2017-02-17T06:22:00.589Z,0
2017-02-17T06:23:12.266Z,0
2017-02-17T06:24:23.916Z,0
2017-02-17T06:25:35.374Z,0
2017-02-17T06:26:47.000Z,0
2017-02-17T06:27:58.488Z,0
2017-02-17T06:29:09.945Z,0
2017-02-17T06:30:21.371Z,0
2017-02-17T06:31:33.285Z,0
2017-02-17T06:32:44.735Z,0
2017-02-17T06:33:56.183Z,0
2017-02-17T06:35:07.623Z,0
2017-02-17T06:36:19.080Z,0
2017-02-17T06:37:30.530Z,0
2017-02-17T06:38:41.957Z,0
2017-02-17T06:39:53.400Z,0
2017-02-17T06:41:05.051Z,0
2017-02-17T06:42:16.491Z,0
2017-02-17T06:43:27.921Z,0
2017-02-17T06:44:39.621Z,0
2017-02-17T06:45:51.057Z,0
2017-02-17T06:47:02.489Z,0
2017-02-17T06:48:13.933Z,0
2017-02-17T06:49:25.381Z,0
2017-02-17T06:50:37.022Z,0
2017-02-17T06:51:48.459Z,5
2017-02-17T06:53:00.092Z,5
2017-02-17T06:54:11.521Z,5
2017-02-17T06:55:23.008Z,10
2017-02-17T06:56:34.429Z,10
2017-02-17T06:57:45.866Z,10
2017-02-17T06:58:57.286Z,10
2017-02-17T07:00:08.701Z,15
2017-02-17T07:01:20.131Z,15
2017-02-17T07:02:31.589Z,10
2017-02-17T07:03:43.037Z,5
2017-02-17T07:04:54.525Z,10
2017-02-17T07:06:06.021Z,10
2017-02-17T07:07:17.457Z,10
2017-02-17T07:08:28.888Z,10
2017-02-17T07:09:40.327Z,10
2017-02-17T07:10:51.772Z,10
2017-02-17T07:12:03.268Z,10
2017-02-17T07:13:14.708Z,10
2017-02-17T07:14:26.148Z,10
2017-02-17T07:15:37.594Z,10
2017-02-17T07:16:49.096Z,10
2017-02-17T07:18:00.552Z,10
2017-02-17T07:19:12.191Z,15
2017-02-17T07:20:23.843Z,15
2017-02-17T07:21:35.488Z,15
2017-02-17T07:22:46.930Z,15
2017-02-17T07:23:58.779Z,15
2017-02-17T07:25:10.235Z,15
2017-02-17T07:26:21.682Z,10
2017-02-17T07:27:33.170Z,5
2017-02-17T07:28:44.599Z,5
2017-02-17T07:29:56.039Z,5
2017-02-17T07:31:07.511Z,5
2017-02-17T07:32:18.941Z,5
2017-02-17T07:33:30.643Z,5
2017-02-17T07:34:42.074Z,5
2017-02-17T07:35:53.732Z,5
2017-02-17T07:37:05.186Z,5
2017-02-17T07:38:16.670Z,5
2017-02-17T07:39:28.303Z,5
2017-02-17T07:40:39.743Z,10
2017-02-17T07:41:51.182Z,10
2017-02-17T07:43:02.626Z,10
2017-02-17T07:44:14.073Z,10
2017-02-17T07:45:25.512Z,10
2017-02-17T07:46:36.978Z,15
2017-02-17T07:47:48.406Z,15
2017-02-17T07:49:00.112Z,20
2017-02-17T07:50:11.575Z,25
2017-02-17T07:51:23.020Z,30
2017-02-17T07:52:34.457Z,30
2017-02-17T07:53:45.892Z,35
2017-02-17T07:54:57.339Z,35
2017-02-17T07:56:08.970Z,35
2017-02-17T07:57:20.613Z,35
2017-02-17T07:58:32.078Z,40
2017-02-17T07:59:43.510Z,30
2017-02-17T08:00:54.951Z,25
2017-02-17T08:02:06.375Z,20
2017-02-17T08:03:17.830Z,25
2017-02-17T08:04:29.270Z,25
2017-02-17T08:05:40.728Z,40
2017-02-17T08:06:52.164Z,40
2017-02-17T08:08:03.608Z,30
2017-02-17T08:09:15.064Z,30
2017-02-17T08:10:26.572Z,30
2017-02-17T08:11:38.014Z,35
2017-02-17T08:12:49.676Z,35
2017-02-17T08:14:01.111Z,50
2017-02-17T08:15:12.542Z,50
2017-02-17T08:16:23.974Z,45
2017-02-17T08:17:35.432Z,40
2017-02-17T08:18:47.069Z,50
2017-02-17T08:19:58.495Z,50
2017-02-17T08:21:09.975Z,50
2017-02-17T08:22:21.420Z,60
2017-02-17T08:23:32.842Z,65
2017-02-17T08:24:44.271Z,55
2017-02-17T08:25:55.896Z,65
2017-02-17T08:27:07.356Z,55
2017-02-17T08:28:18.793Z,55
2017-02-17T08:29:30.235Z,55
2017-02-17T08:30:41.874Z,55
2017-02-17T08:31:53.371Z,55
2017-02-17T08:33:04.811Z,55
2017-02-17T08:34:16.240Z,55
2017-02-17T08:35:27.886Z,75
2017-02-17T08:36:39.339Z,85
2017-02-17T08:37:50.791Z,80
2017-02-17T08:39:02.253Z,85
2017-02-17T08:40:13.684Z,95
2017-02-17T08:41:25.134Z,125
2017-02-17T08:42:36.575Z,135
2017-02-17T08:43:48.222Z,170
2017-02-17T08:44:59.684Z,170
2017-02-17T08:46:11.169Z,205
2017-02-17T08:47:22.602Z,180
2017-02-17T08:48:34.095Z,145
2017-02-17T08:49:45.553Z,110
2017-02-17T08:50:57.018Z,135
2017-02-17T08:52:08.667Z,145
2017-02-17T08:53:20.161Z,140
2017-02-17T08:54:31.610Z,130
2017-02-17T08:55:43.657Z,135
2017-02-17T08:56:55.106Z,135
2017-02-17T08:58:06.764Z,115
2017-02-17T08:59:18.208Z,85
2017-02-17T09:00:29.637Z,75
2017-02-17T09:01:41.078Z,70
2017-02-17T09:02:52.517Z,70
2017-02-17T09:04:04.055Z,65
2017-02-17T09:05:15.528Z,65
2017-02-17T09:06:27.220Z,55
2017-02-17T09:07:38.645Z,50
2017-02-17T09:08:50.097Z,50
2017-02-17T09:10:01.530Z,60
2017-02-17T09:11:13.175Z,80
2017-02-17T09:12:24.632Z,80
2017-02-17T09:13:36.071Z,85
2017-02-17T09:14:47.769Z,65
2017-02-17T09:15:59.210Z,55
2017-02-17T09:17:10.634Z,60
2017-02-17T09:18:22.076Z,65
2017-02-17T09:19:33.520Z,65
2017-02-17T09:20:44.989Z,65
2017-02-17T09:21:56.424Z,80
2017-02-17T09:23:07.857Z,105
2017-02-17T09:24:19.297Z,105
2017-02-17T09:25:30.794Z,115
2017-02-17T09:26:42.265Z,115
2017-02-17T09:27:53.710Z,130
2017-02-17T09:29:05.139Z,145
2017-02-17T09:30:16.599Z,150
2017-02-17T09:31:28.057Z,135
2017-02-17T09:32:39.483Z,135
2017-02-17T09:33:50.924Z,135
2017-02-17T09:35:02.360Z,100
2017-02-17T09:36:13.836Z,85
2017-02-17T09:37:25.268Z,105
2017-02-17T09:38:36.709Z,135
2017-02-17T09:39:48.346Z,125
2017-02-17T09:40:59.787Z,105
2017-02-17T09:42:11.430Z,100
2017-02-17T09:43:22.876Z,115
2017-02-17T09:44:34.334Z,130
2017-02-17T09:45:45.784Z,130
2017-02-17T09:46:57.410Z,130
2017-02-17T09:48:09.048Z,120
2017-02-17T09:49:20.677Z,115
2017-02-17T09:50:32.328Z,115
2017-02-17T09:51:43.835Z,95
2017-02-17T09:52:55.473Z,90
2017-02-17T09:54:06.897Z,95
2017-02-17T09:55:18.341Z,115
2017-02-17T09:56:29.973Z,125
2017-02-17T09:57:41.414Z,130
2017-02-17T09:58:52.843Z,135
2017-02-17T10:00:04.289Z,150
2017-02-17T10:01:16.121Z,165
2017-02-17T10:02:27.603Z,140
2017-02-17T10:03:39.257Z,105
2017-02-17T10:04:50.903Z,95
2017-02-17T10:06:02.370Z,105
2017-02-17T10:07:14.028Z,110
2017-02-17T10:08:25.735Z,140
2017-02-17T10:09:37.184Z,135
2017-02-17T10:10:48.820Z,135
2017-02-17T10:12:00.664Z,120
2017-02-17T10:13:12.102Z,135
2017-02-17T10:14:23.542Z,135
2017-02-17T10:15:34.986Z,140
2017-02-17T10:16:46.432Z,105
2017-02-17T10:17:57.860Z,90
2017-02-17T10:19:09.338Z,85
2017-02-17T10:20:20.791Z,85
2017-02-17T10:21:32.232Z,85
2017-02-17T10:22:43.886Z,85
2017-02-17T10:23:55.313Z,85
2017-02-17T10:25:06.754Z,80
2017-02-17T10:26:18.399Z,85
2017-02-17T10:27:29.835Z,70
2017-02-17T10:28:41.487Z,60
2017-02-17T10:29:53.024Z,65
2017-02-17T10:31:04.474Z,75
2017-02-17T10:32:15.922Z,75
2017-02-17T10:33:27.375Z,80
2017-02-17T10:34:38.826Z,95
2017-02-17T10:35:50.252Z,100
2017-02-17T10:37:01.701Z,100
2017-02-17T10:38:13.137Z,100
2017-02-17T10:39:24.594Z,100
2017-02-17T10:40:36.084Z,115
2017-02-17T10:41:47.506Z,125
2017-02-17T10:42:58.953Z,120
2017-02-17T10:44:10.397Z,105
2017-02-17T10:45:21.826Z,85
2017-02-17T10:46:33.519Z,80
2017-02-17T10:47:45.157Z,90
2017-02-17T10:48:56.584Z,80
2017-02-17T10:50:08.217Z,80
2017-02-17T10:51:19.701Z,65
2017-02-17T10:52:31.171Z,60
2017-02-17T10:53:42.641Z,65
2017-02-17T10:54:54.083Z,60
2017-02-17T10:56:05.516Z,55
2017-02-17T10:57:16.964Z,60
2017-02-17T10:58:28.418Z,85
2017-02-17T10:59:39.857Z,85
2017-02-17T11:00:51.299Z,85
2017-02-17T11:02:02.787Z,75
2017-02-17T11:03:14.434Z,65
2017-02-17T11:04:25.883Z,60
2017-02-17T11:05:37.330Z,65
2017-02-17T11:06:48.769Z,85
2017-02-17T11:08:00.408Z,75
2017-02-17T11:09:11.849Z,95
2017-02-17T11:10:23.493Z,70
2017-02-17T11:11:34.931Z,75
2017-02-17T11:12:46.623Z,85
2017-02-17T11:13:58.050Z,80
2017-02-17T11:15:09.489Z,80
2017-02-17T11:16:20.920Z,100
2017-02-17T11:17:32.371Z,85
2017-02-17T11:18:43.822Z,95
2017-02-17T11:19:55.255Z,105
2017-02-17T11:21:06.693Z,90
2017-02-17T11:22:18.128Z,85
2017-02-17T11:23:29.601Z,80
2017-02-17T11:24:41.067Z,100
2017-02-17T11:25:52.503Z,80
2017-02-17T11:27:03.936Z,75
2017-02-17T11:28:15.580Z,95
2017-02-17T11:29:27.018Z,90
2017-02-17T11:30:38.463Z,95
2017-02-17T11:31:49.917Z,135
2017-02-17T11:33:01.385Z,135
2017-02-17T11:34:12.869Z,100
2017-02-17T11:35:24.506Z,95
2017-02-17T11:36:35.935Z,110
2017-02-17T11:37:47.397Z,105
2017-02-17T11:38:58.832Z,120
2017-02-17T11:40:10.270Z,140
2017-02-17T11:41:21.931Z,135
2017-02-17T11:42:33.369Z,155
2017-02-17T11:43:44.811Z,135
2017-02-17T11:44:56.284Z,165
2017-02-17T11:46:08.144Z,195
2017-02-17T11:47:19.592Z,275
2017-02-17T11:48:31.050Z,435
2017-02-17T11:49:42.492Z,390
2017-02-17T11:50:54.135Z,370
2017-02-17T11:52:05.764Z,275
2017-02-17T11:53:17.407Z,225
2017-02-17T11:54:28.835Z,185
2017-02-17T11:55:40.329Z,180
2017-02-17T11:56:51.792Z,170
2017-02-17T11:58:03.236Z,155
2017-02-17T11:59:14.696Z,150
2017-02-17T12:00:26.134Z,195
2017-02-17T12:01:37.588Z,255
2017-02-17T12:02:49.015Z,275
2017-02-17T12:04:00.699Z,285
2017-02-17T12:05:12.152Z,275
2017-02-17T12:06:23.651Z,290
2017-02-17T12:07:35.117Z,265
2017-02-17T12:08:46.556Z,250
2017-02-17T12:09:57.986Z,250
2017-02-17T12:11:09.446Z,235
2017-02-17T12:12:20.884Z,255
2017-02-17T12:13:32.332Z,270
2017-02-17T12:14:43.781Z,290
2017-02-17T12:15:55.230Z,260
2017-02-17T12:17:06.722Z,215
2017-02-17T12:18:18.189Z,210
2017-02-17T12:19:29.836Z,215
2017-02-17T12:20:41.292Z,215
2017-02-17T12:21:52.727Z,250
2017-02-17T12:23:04.213Z,300
2017-02-17T12:24:15.643Z,395
2017-02-17T12:25:27.079Z,360
2017-02-17T12:26:38.724Z,270
2017-02-17T12:27:50.174Z,230
2017-02-17T12:29:01.618Z,190
2017-02-17T12:30:13.084Z,140
2017-02-17T12:31:24.539Z,140
2017-02-17T12:32:35.978Z,150
2017-02-17T12:33:47.866Z,150
2017-02-17T12:34:59.312Z,125
2017-02-17T12:36:10.793Z,145
2017-02-17T12:37:22.261Z,170
2017-02-17T12:38:33.694Z,200
2017-02-17T12:39:45.343Z,220
2017-02-17T12:40:56.797Z,250
2017-02-17T12:42:08.417Z,285
2017-02-17T12:43:19.873Z,265
2017-02-17T12:44:31.359Z,230
2017-02-17T12:45:42.795Z,185
2017-02-17T12:46:54.250Z,205
2017-02-17T12:48:05.710Z,230
2017-02-17T12:49:17.143Z,235
2017-02-17T12:50:28.565Z,230
2017-02-17T12:51:40.012Z,190
2017-02-17T12:52:51.472Z,170
2017-02-17T12:54:02.927Z,180
2017-02-17T12:55:14.433Z,145
2017-02-17T12:56:25.891Z,125
2017-02-17T12:57:37.356Z,135
2017-02-17T12:58:48.803Z,155
2017-02-17T13:00:00.267Z,130
2017-02-17T13:01:11.719Z,125
2017-02-17T13:02:23.158Z,155
2017-02-17T13:03:34.589Z,160
2017-02-17T13:04:46.055Z,135
2017-02-17T13:05:57.511Z,140
2017-02-17T13:07:08.953Z,115
2017-02-17T13:08:20.401Z,105
2017-02-17T13:09:31.836Z,120
2017-02-17T13:10:43.501Z,95
2017-02-17T13:11:54.968Z,90
2017-02-17T13:13:06.626Z,115
2017-02-17T13:14:18.287Z,140
2017-02-17T13:15:29.722Z,140
2017-02-17T13:16:41.228Z,175
2017-02-17T13:17:52.665Z,135
2017-02-17T13:19:04.124Z,130
2017-02-17T13:20:15.582Z,165
2017-02-17T13:21:27.226Z,185
2017-02-17T13:22:38.692Z,205
2017-02-17T13:23:50.136Z,230
2017-02-17T13:25:01.574Z,200
2017-02-17T13:26:13.025Z,185
2017-02-17T13:27:24.524Z,180
2017-02-17T13:28:35.969Z,190
2017-02-17T13:29:47.624Z,190
2017-02-17T13:30:59.093Z,185
2017-02-17T13:32:10.542Z,155
2017-02-17T13:33:21.991Z,140
2017-02-17T13:34:33.631Z,170
2017-02-17T13:35:45.086Z,195
2017-02-17T13:36:56.536Z,180
2017-02-17T13:38:08.247Z,185
2017-02-17T13:39:19.679Z,200
2017-02-17T13:40:31.125Z,225
2017-02-17T13:41:42.566Z,235
2017-02-17T13:42:54.221Z,235
2017-02-17T13:44:06.057Z,210
2017-02-17T13:45:17.493Z,210
2017-02-17T13:46:29.147Z,180
2017-02-17T13:47:40.591Z,195
2017-02-17T13:48:52.077Z,220
2017-02-17T13:50:03.500Z,210
2017-02-17T13:51:15.142Z,195
2017-02-17T13:52:26.786Z,185
2017-02-17T13:53:38.472Z,210
2017-02-17T13:54:50.112Z,245
2017-02-17T13:56:01.585Z,240
2017-02-17T13:57:13.024Z,225
2017-02-17T13:58:24.475Z,200
2017-02-17T13:59:35.908Z,180
2017-02-17T14:00:47.559Z,150
2017-02-17T14:01:59.012Z,130
2017-02-17T14:03:10.445Z,130
2017-02-17T14:04:22.149Z,135
2017-02-17T14:05:33.608Z,135
2017-02-17T14:06:45.047Z,140
2017-02-17T14:07:56.520Z,125
2017-02-17T14:09:07.970Z,115
2017-02-17T14:10:19.462Z,85
2017-02-17T14:11:30.904Z,80
2017-02-17T14:12:42.338Z,90
2017-02-17T14:13:53.979Z,105
2017-02-17T14:15:05.471Z,95
2017-02-17T14:16:16.904Z,90
2017-02-17T14:17:28.334Z,95
2017-02-17T14:18:39.967Z,90
2017-02-17T14:19:51.406Z,85
2017-02-17T14:21:03.037Z,85
2017-02-17T14:22:14.486Z,105
2017-02-17T14:23:25.944Z,110
2017-02-17T14:24:37.381Z,110
2017-02-17T14:25:49.065Z,115
2017-02-17T14:27:00.503Z,130
2017-02-17T14:28:12.149Z,165
2017-02-17T14:29:24.000Z,180
2017-02-17T14:30:35.842Z,185
2017-02-17T14:31:47.306Z,170
2017-02-17T14:32:58.734Z,155
2017-02-17T14:34:10.174Z,145
2017-02-17T14:35:21.626Z,135
2017-02-17T14:36:33.063Z,135
2017-02-17T14:37:44.705Z,130
2017-02-17T14:38:56.162Z,130
2017-02-17T14:40:07.636Z,125
2017-02-17T14:41:19.130Z,115
2017-02-17T14:42:30.579Z,105
2017-02-17T14:43:42.013Z,100
2017-02-17T14:44:53.483Z,105
2017-02-17T14:46:04.936Z,130
2017-02-17T14:47:16.582Z,125
2017-02-17T14:48:28.025Z,120
2017-02-17T14:49:39.489Z,125
2017-02-17T14:50:50.941Z,120
2017-02-17T14:52:02.380Z,135
2017-02-17T14:53:13.809Z,135
2017-02-17T14:54:25.259Z,130
2017-02-17T14:55:36.699Z,125
2017-02-17T14:56:48.389Z,120
2017-02-17T14:57:59.832Z,120
2017-02-17T14:59:11.525Z,120
2017-02-17T15:00:22.977Z,125
2017-02-17T15:01:34.436Z,120
2017-02-17T15:02:45.922Z,115
2017-02-17T15:03:57.364Z,105
2017-02-17T15:05:08.800Z,100
2017-02-17T15:06:20.244Z,90
2017-02-17T15:07:31.928Z,80
2017-02-17T15:08:43.411Z,75
2017-02-17T15:09:54.847Z,75
2017-02-17T15:11:06.276Z,85
2017-02-17T15:12:17.731Z,85
2017-02-17T15:13:29.186Z,85
2017-02-17T15:14:40.645Z,85
2017-02-17T15:15:52.088Z,85
2017-02-17T15:17:03.528Z,85
2017-02-17T15:18:15.046Z,85
2017-02-17T15:19:26.481Z,90
2017-02-17T15:20:37.911Z,95
2017-02-17T15:21:49.540Z,95
2017-02-17T15:23:00.976Z,90
2017-02-17T15:24:12.433Z,85
2017-02-17T15:25:23.867Z,80
2017-02-17T15:26:35.314Z,75
2017-02-17T15:27:46.756Z,65
2017-02-17T15:28:58.258Z,65
2017-02-17T15:30:09.716Z,60
2017-02-17T15:31:21.172Z,55
2017-02-17T15:32:32.622Z,60
2017-02-17T15:33:44.052Z,55
2017-02-17T15:34:55.495Z,50
2017-02-17T15:36:06.948Z,45
2017-02-17T15:37:18.384Z,35
2017-02-17T15:38:29.819Z,35
2017-02-17T15:39:41.328Z,35
2017-02-17T15:40:52.770Z,30
2017-02-17T15:42:04.417Z,30
2017-02-17T15:43:16.055Z,30
2017-02-17T15:44:27.510Z,30
2017-02-17T15:45:39.150Z,40
2017-02-17T15:46:50.585Z,40
2017-02-17T15:48:02.027Z,45
2017-02-17T15:49:13.476Z,50
2017-02-17T15:50:24.965Z,50
2017-02-17T15:51:36.495Z,55
2017-02-17T15:52:47.940Z,55
2017-02-17T15:53:59.434Z,60
2017-02-17T15:55:11.067Z,60
2017-02-17T15:56:22.513Z,60
2017-02-17T15:57:33.950Z,55
2017-02-17T15:58:45.390Z,55
2017-02-17T15:59:56.824Z,55
2017-02-17T16:01:08.312Z,50
2017-02-17T16:02:19.765Z,50
2017-02-17T16:03:31.195Z,50
2017-02-17T16:04:42.629Z,50
2017-02-17T16:05:54.268Z,50
2017-02-17T16:07:05.734Z,45
2017-02-17T16:08:17.225Z,45
2017-02-17T16:09:28.702Z,45
2017-02-17T16:10:40.574Z,40
2017-02-17T16:11:52.055Z,40
2017-02-17T16:13:03.497Z,40
2017-02-17T16:14:14.961Z,40
2017-02-17T16:15:26.597Z,35
2017-02-17T16:16:38.434Z,35
2017-02-17T16:17:49.919Z,35
2017-02-17T16:19:01.358Z,30
2017-02-17T16:20:12.799Z,25
2017-02-17T16:21:24.237Z,25
2017-02-17T16:22:35.726Z,20
2017-02-17T16:23:47.171Z,20
2017-02-17T16:24:58.629Z,20
2017-02-17T16:26:10.064Z,20
2017-02-17T16:27:21.494Z,20
2017-02-17T16:28:32.935Z,20
2017-02-17T16:29:44.370Z,15
2017-02-17T16:30:55.827Z,15
2017-02-17T16:32:07.254Z,15
2017-02-17T16:33:18.756Z,15
2017-02-17T16:34:30.209Z,10
2017-02-17T16:35:41.660Z,10
2017-02-17T16:36:53.313Z,10
2017-02-17T16:38:04.833Z,5
2017-02-17T16:39:16.310Z,5
2017-02-17T16:40:27.952Z,5
2017-02-17T16:41:39.594Z,5
2017-02-17T16:42:51.237Z,5
2017-02-17T16:44:02.726Z,5
2017-02-17T16:45:14.363Z,5
2017-02-17T16:46:25.790Z,0
2017-02-17T16:47:37.223Z,0
2017-02-17T16:48:48.666Z,0
2017-02-17T16:50:00.303Z,0
2017-02-17T16:51:11.740Z,0
2017-02-17T16:52:23.186Z,0
2017-02-17T16:53:34.628Z,0
2017-02-17T16:54:46.080Z,0
2017-02-17T16:55:57.515Z,0
2017-02-17T16:57:08.951Z,0
2017-02-17T16:58:20.386Z,0
2017-02-17T16:59:31.809Z,0
2017-02-17T17:00:43.439Z,0
2017-02-17T17:01:54.868Z,0
2017-02-17T17:03:06.527Z,0
2017-02-17T17:04:17.984Z,0
2017-02-17T17:05:29.477Z,0